sensor_id;sensor_type;location;lat;lon;timestamp;P1;durP1;ratioP1;P2;durP2;ratioP2
53903;SDS011;39812;52.430;16.936;2023-04-24T00:01:13;25.05;;;14.43;;
53903;SDS011;39812;52.430;16.936;2023-04-24T00:03:40;20.48;;;13.45;;
53903;SDS011;39812;52.430;16.936;2023-04-24T00:06:06;27.27;;;14.63;;
53903;SDS011;39812;52.430;16.936;2023-04-24T00:08:33;19.75;;;12.65;;
53903;SDS011;39812;52.430;16.936;2023-04-24T00:11:01;18.02;;;13.10;;
53903;SDS011;39812;52.430;16.936;2023-04-24T00:13:27;21.20;;;12.98;;
53903;SDS011;39812;52.430;16.936;2023-04-24T00:15:53;19.95;;;12.68;;
53903;SDS011;39812;52.430;16.936;2023-04-24T00:18:19;20.50;;;12.18;;
53903;SDS011;39812;52.430;16.936;2023-04-24T00:20:45;18.67;;;12.35;;
53903;SDS011;39812;52.430;16.936;2023-04-24T00:23:11;19.63;;;11.73;;
53903;SDS011;39812;52.430;16.936;2023-04-24T00:25:37;18.23;;;12.35;;
53903;SDS011;39812;52.430;16.936;2023-04-24T00:28:03;16.50;;;11.90;;
53903;SDS011;39812;52.430;16.936;2023-04-24T00:30:29;19.77;;;11.88;;
53903;SDS011;39812;52.430;16.936;2023-04-24T00:32:54;17.15;;;11.43;;
53903;SDS011;39812;52.430;16.936;2023-04-24T00:35:20;19.13;;;11.07;;
53903;SDS011;39812;52.430;16.936;2023-04-24T00:37:46;19.13;;;11.90;;
53903;SDS011;39812;52.430;16.936;2023-04-24T00:40:11;17.98;;;12.23;;
53903;SDS011;39812;52.430;16.936;2023-04-24T00:42:38;17.75;;;11.05;;
53903;SDS011;39812;52.430;16.936;2023-04-24T00:45:05;16.77;;;10.98;;
53903;SDS011;39812;52.430;16.936;2023-04-24T00:47:32;16.85;;;10.60;;
53903;SDS011;39812;52.430;16.936;2023-04-24T00:49:59;17.15;;;11.45;;
53903;SDS011;39812;52.430;16.936;2023-04-24T00:52:29;19.73;;;10.77;;
53903;SDS011;39812;52.430;16.936;2023-04-24T00:54:57;15.48;;;11.02;;
53903;SDS011;39812;52.430;16.936;2023-04-24T00:57:22;15.10;;;10.10;;
53903;SDS011;39812;52.430;16.936;2023-04-24T00:59:48;15.70;;;10.65;;
53903;SDS011;39812;52.430;16.936;2023-04-24T01:02:14;19.48;;;11.05;;
53903;SDS011;39812;52.430;16.936;2023-04-24T01:04:40;18.05;;;11.13;;
53903;SDS011;39812;52.430;16.936;2023-04-24T01:07:06;18.30;;;11.45;;
53903;SDS011;39812;52.430;16.936;2023-04-24T01:09:35;20.67;;;11.38;;
53903;SDS011;39812;52.430;16.936;2023-04-24T01:12:06;18.20;;;11.45;;
53903;SDS011;39812;52.430;16.936;2023-04-24T01:14:32;17.10;;;11.85;;
53903;SDS011;39812;52.430;16.936;2023-04-24T01:16:58;21.15;;;12.30;;
53903;SDS011;39812;52.430;16.936;2023-04-24T01:19:24;17.58;;;11.52;;
53903;SDS011;39812;52.430;16.936;2023-04-24T01:21:50;22.00;;;11.32;;
53903;SDS011;39812;52.430;16.936;2023-04-24T01:24:18;20.95;;;11.82;;
53903;SDS011;39812;52.430;16.936;2023-04-24T01:26:44;20.98;;;11.93;;
53903;SDS011;39812;52.430;16.936;2023-04-24T01:29:11;17.48;;;11.52;;
53903;SDS011;39812;52.430;16.936;2023-04-24T01:31:37;17.55;;;11.98;;
53903;SDS011;39812;52.430;16.936;2023-04-24T01:34:04;19.77;;;11.40;;
53903;SDS011;39812;52.430;16.936;2023-04-24T01:36:30;17.23;;;11.07;;
53903;SDS011;39812;52.430;16.936;2023-04-24T01:38:58;14.27;;;10.10;;
53903;SDS011;39812;52.430;16.936;2023-04-24T01:41:23;16.05;;;10.45;;
53903;SDS011;39812;52.430;16.936;2023-04-24T01:43:50;19.67;;;11.73;;
53903;SDS011;39812;52.430;16.936;2023-04-24T01:46:16;20.13;;;12.77;;
53903;SDS011;39812;52.430;16.936;2023-04-24T01:48:41;24.10;;;13.05;;
53903;SDS011;39812;52.430;16.936;2023-04-24T01:51:07;19.33;;;12.98;;
53903;SDS011;39812;52.430;16.936;2023-04-24T01:53:33;17.92;;;11.68;;
53903;SDS011;39812;52.430;16.936;2023-04-24T01:55:59;21.08;;;13.38;;
53903;SDS011;39812;52.430;16.936;2023-04-24T01:58:25;18.42;;;11.77;;
53903;SDS011;39812;52.430;16.936;2023-04-24T02:00:52;21.90;;;12.68;;
53903;SDS011;39812;52.430;16.936;2023-04-24T02:03:17;20.23;;;13.15;;
53903;SDS011;39812;52.430;16.936;2023-04-24T02:05:46;19.90;;;13.13;;
53903;SDS011;39812;52.430;16.936;2023-04-24T02:08:11;21.73;;;13.15;;
53903;SDS011;39812;52.430;16.936;2023-04-24T02:10:37;21.17;;;12.45;;
53903;SDS011;39812;52.430;16.936;2023-04-24T02:13:03;19.20;;;13.50;;
53903;SDS011;39812;52.430;16.936;2023-04-24T02:15:29;17.63;;;12.90;;
53903;SDS011;39812;52.430;16.936;2023-04-24T02:17:55;21.42;;;14.10;;
53903;SDS011;39812;52.430;16.936;2023-04-24T02:20:20;19.48;;;12.00;;
53903;SDS011;39812;52.430;16.936;2023-04-24T02:22:46;19.58;;;12.25;;
53903;SDS011;39812;52.430;16.936;2023-04-24T02:25:12;16.33;;;11.55;;
53903;SDS011;39812;52.430;16.936;2023-04-24T02:27:37;21.02;;;11.65;;
53903;SDS011;39812;52.430;16.936;2023-04-24T02:30:03;16.65;;;10.77;;
53903;SDS011;39812;52.430;16.936;2023-04-24T02:32:29;17.33;;;11.23;;
53903;SDS011;39812;52.430;16.936;2023-04-24T02:34:55;20.25;;;12.57;;
53903;SDS011;39812;52.430;16.936;2023-04-24T02:37:21;16.88;;;11.82;;
53903;SDS011;39812;52.430;16.936;2023-04-24T02:39:46;16.58;;;11.65;;
53903;SDS011;39812;52.430;16.936;2023-04-24T02:42:12;16.40;;;11.07;;
53903;SDS011;39812;52.430;16.936;2023-04-24T02:44:38;19.67;;;11.75;;
53903;SDS011;39812;52.430;16.936;2023-04-24T02:47:03;16.02;;;10.88;;
53903;SDS011;39812;52.430;16.936;2023-04-24T02:49:29;15.85;;;11.30;;
53903;SDS011;39812;52.430;16.936;2023-04-24T02:51:55;16.92;;;11.40;;
53903;SDS011;39812;52.430;16.936;2023-04-24T02:54:20;18.17;;;10.80;;
53903;SDS011;39812;52.430;16.936;2023-04-24T02:56:46;20.88;;;12.27;;
53903;SDS011;39812;52.430;16.936;2023-04-24T02:59:11;16.73;;;11.13;;
53903;SDS011;39812;52.430;16.936;2023-04-24T03:01:37;15.07;;;10.73;;
53903;SDS011;39812;52.430;16.936;2023-04-24T03:04:03;16.73;;;10.80;;
53903;SDS011;39812;52.430;16.936;2023-04-24T03:06:28;16.02;;;10.82;;
53903;SDS011;39812;52.430;16.936;2023-04-24T03:08:56;15.88;;;10.70;;
53903;SDS011;39812;52.430;16.936;2023-04-24T03:11:21;14.07;;;10.88;;
53903;SDS011;39812;52.430;16.936;2023-04-24T03:13:47;19.70;;;11.27;;
53903;SDS011;39812;52.430;16.936;2023-04-24T03:16:13;16.58;;;10.68;;
53903;SDS011;39812;52.430;16.936;2023-04-24T03:18:38;16.80;;;10.23;;
53903;SDS011;39812;52.430;16.936;2023-04-24T03:21:04;14.98;;;10.07;;
53903;SDS011;39812;52.430;16.936;2023-04-24T03:23:30;15.88;;;10.68;;
53903;SDS011;39812;52.430;16.936;2023-04-24T03:25:55;18.55;;;10.77;;
53903;SDS011;39812;52.430;16.936;2023-04-24T03:28:21;16.02;;;11.80;;
53903;SDS011;39812;52.430;16.936;2023-04-24T03:30:47;15.02;;;11.15;;
53903;SDS011;39812;52.430;16.936;2023-04-24T03:33:12;19.17;;;10.48;;
53903;SDS011;39812;52.430;16.936;2023-04-24T03:35:38;15.18;;;10.40;;
53903;SDS011;39812;52.430;16.936;2023-04-24T03:38:03;19.48;;;10.85;;
53903;SDS011;39812;52.430;16.936;2023-04-24T03:40:29;16.83;;;9.70;;
53903;SDS011;39812;52.430;16.936;2023-04-24T03:42:55;18.40;;;11.38;;
53903;SDS011;39812;52.430;16.936;2023-04-24T03:45:21;19.92;;;11.38;;
53903;SDS011;39812;52.430;16.936;2023-04-24T03:47:46;17.90;;;12.00;;
53903;SDS011;39812;52.430;16.936;2023-04-24T03:50:12;19.35;;;11.90;;
53903;SDS011;39812;52.430;16.936;2023-04-24T03:52:38;20.30;;;11.88;;
53903;SDS011;39812;52.430;16.936;2023-04-24T03:55:03;19.98;;;12.95;;
53903;SDS011;39812;52.430;16.936;2023-04-24T03:57:29;21.48;;;13.40;;
53903;SDS011;39812;52.430;16.936;2023-04-24T03:59:55;20.08;;;13.10;;
53903;SDS011;39812;52.430;16.936;2023-04-24T04:02:21;19.45;;;13.27;;
53903;SDS011;39812;52.430;16.936;2023-04-24T04:04:46;17.35;;;12.13;;
53903;SDS011;39812;52.430;16.936;2023-04-24T04:07:12;22.02;;;13.93;;
53903;SDS011;39812;52.430;16.936;2023-04-24T04:09:38;23.55;;;14.35;;
53903;SDS011;39812;52.430;16.936;2023-04-24T04:12:03;23.17;;;13.90;;
53903;SDS011;39812;52.430;16.936;2023-04-24T04:14:29;22.27;;;14.43;;
53903;SDS011;39812;52.430;16.936;2023-04-24T04:16:54;23.45;;;14.45;;
53903;SDS011;39812;52.430;16.936;2023-04-24T04:19:20;22.52;;;14.15;;
53903;SDS011;39812;52.430;16.936;2023-04-24T04:21:46;25.75;;;14.65;;
53903;SDS011;39812;52.430;16.936;2023-04-24T04:24:17;20.05;;;13.68;;
53903;SDS011;39812;52.430;16.936;2023-04-24T04:26:42;22.00;;;14.18;;
53903;SDS011;39812;52.430;16.936;2023-04-24T04:29:11;18.83;;;13.48;;
53903;SDS011;39812;52.430;16.936;2023-04-24T04:31:38;19.08;;;12.60;;
53903;SDS011;39812;52.430;16.936;2023-04-24T04:34:03;20.67;;;11.85;;
53903;SDS011;39812;52.430;16.936;2023-04-24T04:36:29;16.48;;;11.75;;
53903;SDS011;39812;52.430;16.936;2023-04-24T04:38:54;14.63;;;10.55;;
53903;SDS011;39812;52.430;16.936;2023-04-24T04:41:21;14.00;;;10.48;;
53903;SDS011;39812;52.430;16.936;2023-04-24T04:43:47;16.38;;;11.32;;
53903;SDS011;39812;52.430;16.936;2023-04-24T04:46:13;15.43;;;9.98;;
53903;SDS011;39812;52.430;16.936;2023-04-24T04:48:38;15.15;;;9.70;;
53903;SDS011;39812;52.430;16.936;2023-04-24T04:51:05;14.60;;;10.10;;
53903;SDS011;39812;52.430;16.936;2023-04-24T04:53:31;14.50;;;9.30;;
53903;SDS011;39812;52.430;16.936;2023-04-24T04:55:56;15.55;;;10.18;;
53903;SDS011;39812;52.430;16.936;2023-04-24T04:58:22;18.23;;;10.40;;
53903;SDS011;39812;52.430;16.936;2023-04-24T05:00:48;16.52;;;10.02;;
53903;SDS011;39812;52.430;16.936;2023-04-24T05:03:14;15.68;;;10.15;;
53903;SDS011;39812;52.430;16.936;2023-04-24T05:05:39;18.25;;;10.45;;
53903;SDS011;39812;52.430;16.936;2023-04-24T05:08:06;13.73;;;10.45;;
53903;SDS011;39812;52.430;16.936;2023-04-24T05:10:32;14.50;;;9.40;;
53903;SDS011;39812;52.430;16.936;2023-04-24T05:12:58;17.30;;;10.40;;
53903;SDS011;39812;52.430;16.936;2023-04-24T05:15:23;14.38;;;9.23;;
53903;SDS011;39812;52.430;16.936;2023-04-24T05:17:49;22.13;;;10.45;;
53903;SDS011;39812;52.430;16.936;2023-04-24T05:20:15;14.60;;;9.75;;
53903;SDS011;39812;52.430;16.936;2023-04-24T05:22:40;14.52;;;9.40;;
53903;SDS011;39812;52.430;16.936;2023-04-24T05:25:06;15.32;;;10.32;;
53903;SDS011;39812;52.430;16.936;2023-04-24T05:27:32;17.63;;;10.18;;
53903;SDS011;39812;52.430;16.936;2023-04-24T05:29:58;14.32;;;9.35;;
53903;SDS011;39812;52.430;16.936;2023-04-24T05:32:24;14.02;;;9.52;;
53903;SDS011;39812;52.430;16.936;2023-04-24T05:34:50;14.02;;;9.23;;
53903;SDS011;39812;52.430;16.936;2023-04-24T05:37:16;14.45;;;9.27;;
53903;SDS011;39812;52.430;16.936;2023-04-24T05:39:41;16.85;;;10.50;;
53903;SDS011;39812;52.430;16.936;2023-04-24T05:42:07;16.80;;;9.38;;
53903;SDS011;39812;52.430;16.936;2023-04-24T05:44:33;14.48;;;9.65;;
53903;SDS011;39812;52.430;16.936;2023-04-24T05:46:59;12.80;;;8.95;;
53903;SDS011;39812;52.430;16.936;2023-04-24T05:49:25;17.85;;;9.82;;
53903;SDS011;39812;52.430;16.936;2023-04-24T05:51:51;18.27;;;9.65;;
53903;SDS011;39812;52.430;16.936;2023-04-24T05:54:16;12.73;;;8.80;;
53903;SDS011;39812;52.430;16.936;2023-04-24T05:56:42;14.00;;;9.50;;
53903;SDS011;39812;52.430;16.936;2023-04-24T05:59:07;15.25;;;9.55;;
53903;SDS011;39812;52.430;16.936;2023-04-24T06:01:34;13.35;;;8.55;;
53903;SDS011;39812;52.430;16.936;2023-04-24T06:04:02;15.63;;;9.63;;
53903;SDS011;39812;52.430;16.936;2023-04-24T06:06:28;16.55;;;9.15;;
53903;SDS011;39812;52.430;16.936;2023-04-24T06:08:54;15.05;;;9.48;;
53903;SDS011;39812;52.430;16.936;2023-04-24T06:11:20;12.50;;;9.27;;
53903;SDS011;39812;52.430;16.936;2023-04-24T06:13:46;11.90;;;9.50;;
53903;SDS011;39812;52.430;16.936;2023-04-24T06:16:11;12.57;;;8.82;;
53903;SDS011;39812;52.430;16.936;2023-04-24T06:18:37;12.95;;;8.63;;
53903;SDS011;39812;52.430;16.936;2023-04-24T06:21:03;14.10;;;8.77;;
53903;SDS011;39812;52.430;16.936;2023-04-24T06:23:29;13.35;;;9.18;;
53903;SDS011;39812;52.430;16.936;2023-04-24T06:25:57;13.52;;;8.95;;
53903;SDS011;39812;52.430;16.936;2023-04-24T06:28:23;14.20;;;8.82;;
53903;SDS011;39812;52.430;16.936;2023-04-24T06:30:48;12.80;;;7.90;;
53903;SDS011;39812;52.430;16.936;2023-04-24T06:33:14;10.80;;;8.07;;
53903;SDS011;39812;52.430;16.936;2023-04-24T06:35:39;15.32;;;9.57;;
53903;SDS011;39812;52.430;16.936;2023-04-24T06:38:05;14.85;;;9.23;;
53903;SDS011;39812;52.430;16.936;2023-04-24T06:40:31;13.10;;;9.35;;
53903;SDS011;39812;52.430;16.936;2023-04-24T06:42:56;13.15;;;9.70;;
53903;SDS011;39812;52.430;16.936;2023-04-24T06:45:25;11.63;;;9.07;;
53903;SDS011;39812;52.430;16.936;2023-04-24T06:47:50;12.23;;;8.73;;
53903;SDS011;39812;52.430;16.936;2023-04-24T06:50:16;11.95;;;8.30;;
53903;SDS011;39812;52.430;16.936;2023-04-24T06:52:44;12.13;;;9.05;;
53903;SDS011;39812;52.430;16.936;2023-04-24T06:55:10;14.88;;;9.32;;
53903;SDS011;39812;52.430;16.936;2023-04-24T06:57:36;14.57;;;9.48;;
53903;SDS011;39812;52.430;16.936;2023-04-24T07:00:02;15.57;;;9.57;;
53903;SDS011;39812;52.430;16.936;2023-04-24T07:02:30;11.38;;;8.30;;
53903;SDS011;39812;52.430;16.936;2023-04-24T07:04:55;13.15;;;8.55;;
53903;SDS011;39812;52.430;16.936;2023-04-24T07:07:21;13.35;;;8.85;;
53903;SDS011;39812;52.430;16.936;2023-04-24T07:09:48;11.70;;;8.60;;
53903;SDS011;39812;52.430;16.936;2023-04-24T07:12:15;10.70;;;8.20;;
53903;SDS011;39812;52.430;16.936;2023-04-24T07:14:42;13.48;;;8.60;;
53903;SDS011;39812;52.430;16.936;2023-04-24T07:17:07;12.18;;;8.48;;
53903;SDS011;39812;52.430;16.936;2023-04-24T07:19:33;13.40;;;8.35;;
53903;SDS011;39812;52.430;16.936;2023-04-24T07:22:02;13.80;;;9.10;;
53903;SDS011;39812;52.430;16.936;2023-04-24T07:24:28;14.68;;;9.55;;
53903;SDS011;39812;52.430;16.936;2023-04-24T07:26:54;11.57;;;8.35;;
53903;SDS011;39812;52.430;16.936;2023-04-24T07:29:20;14.30;;;8.52;;
53903;SDS011;39812;52.430;16.936;2023-04-24T07:31:46;12.13;;;9.23;;
53903;SDS011;39812;52.430;16.936;2023-04-24T07:34:12;10.75;;;8.00;;
53903;SDS011;39812;52.430;16.936;2023-04-24T07:36:37;10.48;;;7.97;;
53903;SDS011;39812;52.430;16.936;2023-04-24T07:39:03;14.00;;;8.43;;
53903;SDS011;39812;52.430;16.936;2023-04-24T07:41:29;12.40;;;7.82;;
53903;SDS011;39812;52.430;16.936;2023-04-24T07:43:55;11.65;;;8.25;;
53903;SDS011;39812;52.430;16.936;2023-04-24T07:46:21;10.57;;;8.05;;
53903;SDS011;39812;52.430;16.936;2023-04-24T07:48:48;14.25;;;8.13;;
53903;SDS011;39812;52.430;16.936;2023-04-24T07:51:15;11.50;;;7.70;;
53903;SDS011;39812;52.430;16.936;2023-04-24T07:53:41;11.65;;;8.63;;
53903;SDS011;39812;52.430;16.936;2023-04-24T07:56:08;12.07;;;7.55;;
53903;SDS011;39812;52.430;16.936;2023-04-24T07:58:34;11.65;;;8.20;;
53903;SDS011;39812;52.430;16.936;2023-04-24T08:01:00;10.32;;;7.63;;
53903;SDS011;39812;52.430;16.936;2023-04-24T08:03:25;15.30;;;7.65;;
53903;SDS011;39812;52.430;16.936;2023-04-24T08:05:51;13.50;;;8.50;;
53903;SDS011;39812;52.430;16.936;2023-04-24T08:08:16;11.30;;;7.32;;
53903;SDS011;39812;52.430;16.936;2023-04-24T08:10:43;11.75;;;8.02;;
53903;SDS011;39812;52.430;16.936;2023-04-24T08:13:08;11.40;;;7.35;;
53903;SDS011;39812;52.430;16.936;2023-04-24T08:15:36;11.93;;;7.78;;
53903;SDS011;39812;52.430;16.936;2023-04-24T08:18:02;12.80;;;7.25;;
53903;SDS011;39812;52.430;16.936;2023-04-24T08:20:27;12.02;;;7.82;;
53903;SDS011;39812;52.430;16.936;2023-04-24T08:22:53;12.65;;;7.90;;
53903;SDS011;39812;52.430;16.936;2023-04-24T08:25:19;9.95;;;6.72;;
53903;SDS011;39812;52.430;16.936;2023-04-24T08:27:45;11.07;;;7.38;;
53903;SDS011;39812;52.430;16.936;2023-04-24T08:30:11;14.07;;;8.68;;
53903;SDS011;39812;52.430;16.936;2023-04-24T08:32:36;11.63;;;8.30;;
53903;SDS011;39812;52.430;16.936;2023-04-24T08:35:02;11.57;;;7.65;;
53903;SDS011;39812;52.430;16.936;2023-04-24T08:37:28;12.95;;;8.10;;
53903;SDS011;39812;52.430;16.936;2023-04-24T08:39:54;12.48;;;7.30;;
53903;SDS011;39812;52.430;16.936;2023-04-24T08:42:20;10.85;;;7.40;;
53903;SDS011;39812;52.430;16.936;2023-04-24T08:44:46;10.95;;;7.60;;
53903;SDS011;39812;52.430;16.936;2023-04-24T08:47:14;13.05;;;8.15;;
53903;SDS011;39812;52.430;16.936;2023-04-24T08:49:40;8.80;;;6.70;;
53903;SDS011;39812;52.430;16.936;2023-04-24T08:52:07;12.48;;;7.22;;
53903;SDS011;39812;52.430;16.936;2023-04-24T08:54:36;10.90;;;7.38;;
53903;SDS011;39812;52.430;16.936;2023-04-24T08:57:03;14.57;;;7.88;;
53903;SDS011;39812;52.430;16.936;2023-04-24T08:59:29;11.88;;;8.18;;
53903;SDS011;39812;52.430;16.936;2023-04-24T09:01:56;14.40;;;7.93;;
53903;SDS011;39812;52.430;16.936;2023-04-24T09:04:23;10.73;;;7.22;;
53903;SDS011;39812;52.430;16.936;2023-04-24T09:06:55;16.52;;;8.77;;
53903;SDS011;39812;52.430;16.936;2023-04-24T09:09:22;10.20;;;7.15;;
53903;SDS011;39812;52.430;16.936;2023-04-24T09:11:53;12.70;;;7.97;;
53903;SDS011;39812;52.430;16.936;2023-04-24T09:14:20;11.85;;;7.50;;
53903;SDS011;39812;52.430;16.936;2023-04-24T09:16:48;15.23;;;8.32;;
53903;SDS011;39812;52.430;16.936;2023-04-24T09:19:13;18.40;;;8.52;;
53903;SDS011;39812;52.430;16.936;2023-04-24T09:21:39;11.93;;;8.18;;
53903;SDS011;39812;52.430;16.936;2023-04-24T09:24:07;11.75;;;8.18;;
53903;SDS011;39812;52.430;16.936;2023-04-24T09:26:42;12.32;;;7.78;;
53903;SDS011;39812;52.430;16.936;2023-04-24T09:29:13;11.27;;;8.50;;
53903;SDS011;39812;52.430;16.936;2023-04-24T09:31:43;13.40;;;7.97;;
53903;SDS011;39812;52.430;16.936;2023-04-24T09:34:10;12.48;;;8.48;;
53903;SDS011;39812;52.430;16.936;2023-04-24T09:36:37;12.60;;;7.90;;
53903;SDS011;39812;52.430;16.936;2023-04-24T09:39:07;12.05;;;7.30;;
53903;SDS011;39812;52.430;16.936;2023-04-24T09:41:50;12.00;;;7.38;;
53903;SDS011;39812;52.430;16.936;2023-04-24T09:44:21;10.15;;;7.03;;
53903;SDS011;39812;52.430;16.936;2023-04-24T09:46:57;10.60;;;7.32;;
53903;SDS011;39812;52.430;16.936;2023-04-24T09:51:50;11.35;;;6.57;;
53903;SDS011;39812;52.430;16.936;2023-04-24T09:54:17;9.70;;;6.70;;
53903;SDS011;39812;52.430;16.936;2023-04-24T09:56:48;10.15;;;6.18;;
53903;SDS011;39812;52.430;16.936;2023-04-24T09:59:15;7.93;;;5.72;;
53903;SDS011;39812;52.430;16.936;2023-04-24T10:01:42;10.63;;;5.50;;
53903;SDS011;39812;52.430;16.936;2023-04-24T10:06:46;7.38;;;5.40;;
53903;SDS011;39812;52.430;16.936;2023-04-24T10:09:16;10.43;;;6.47;;
53903;SDS011;39812;52.430;16.936;2023-04-24T10:11:44;7.28;;;5.38;;
53903;SDS011;39812;52.430;16.936;2023-04-24T10:14:12;9.70;;;6.45;;
53903;SDS011;39812;52.430;16.936;2023-04-24T10:16:42;8.65;;;6.05;;
53903;SDS011;39812;52.430;16.936;2023-04-24T10:19:09;9.27;;;6.18;;
53903;SDS011;39812;52.430;16.936;2023-04-24T10:21:37;8.30;;;5.93;;
53903;SDS011;39812;52.430;16.936;2023-04-24T10:24:07;7.32;;;6.07;;
53903;SDS011;39812;52.430;16.936;2023-04-24T10:26:36;7.97;;;6.20;;
53903;SDS011;39812;52.430;16.936;2023-04-24T10:29:03;9.10;;;6.75;;
53903;SDS011;39812;52.430;16.936;2023-04-24T10:31:31;8.85;;;6.75;;
53903;SDS011;39812;52.430;16.936;2023-04-24T10:33:58;8.68;;;7.22;;
53903;SDS011;39812;52.430;16.936;2023-04-24T10:36:26;7.95;;;6.68;;
53903;SDS011;39812;52.430;16.936;2023-04-24T10:38:54;10.20;;;6.82;;
53903;SDS011;39812;52.430;16.936;2023-04-24T10:41:20;8.77;;;6.47;;
53903;SDS011;39812;52.430;16.936;2023-04-24T10:44:10;8.02;;;6.60;;
53903;SDS011;39812;52.430;16.936;2023-04-24T10:46:36;9.18;;;6.50;;
53903;SDS011;39812;52.430;16.936;2023-04-24T10:49:06;7.28;;;6.43;;
53903;SDS011;39812;52.430;16.936;2023-04-24T10:51:50;8.90;;;7.13;;
53903;SDS011;39812;52.430;16.936;2023-04-24T10:54:36;10.55;;;7.78;;
53903;SDS011;39812;52.430;16.936;2023-04-24T10:59:44;11.23;;;7.00;;
53903;SDS011;39812;52.430;16.936;2023-04-24T11:02:10;7.65;;;5.82;;
53903;SDS011;39812;52.430;16.936;2023-04-24T11:04:40;8.20;;;6.47;;
53903;SDS011;39812;52.430;16.936;2023-04-24T11:07:08;8.75;;;4.70;;
53903;SDS011;39812;52.430;16.936;2023-04-24T11:09:34;6.53;;;4.88;;
53903;SDS011;39812;52.430;16.936;2023-04-24T11:17:29;3.53;;;2.37;;
53903;SDS011;39812;52.430;16.936;2023-04-24T11:20:09;5.60;;;3.35;;
53903;SDS011;39812;52.430;16.936;2023-04-24T11:22:37;5.90;;;3.70;;
53903;SDS011;39812;52.430;16.936;2023-04-24T11:25:05;5.05;;;3.75;;
53903;SDS011;39812;52.430;16.936;2023-04-24T11:27:32;6.75;;;4.13;;
53903;SDS011;39812;52.430;16.936;2023-04-24T11:30:07;4.43;;;3.22;;
53903;SDS011;39812;52.430;16.936;2023-04-24T11:32:36;8.77;;;3.97;;
53903;SDS011;39812;52.430;16.936;2023-04-24T11:37:36;6.30;;;3.95;;
53903;SDS011;39812;52.430;16.936;2023-04-24T11:40:04;8.13;;;4.55;;
53903;SDS011;39812;52.430;16.936;2023-04-24T11:42:38;4.22;;;2.67;;
53903;SDS011;39812;52.430;16.936;2023-04-24T11:47:35;5.55;;;3.35;;
53903;SDS011;39812;52.430;16.936;2023-04-24T11:50:01;4.53;;;3.40;;
53903;SDS011;39812;52.430;16.936;2023-04-24T11:52:27;4.60;;;3.58;;
53903;SDS011;39812;52.430;16.936;2023-04-24T11:54:53;4.22;;;2.60;;
53903;SDS011;39812;52.430;16.936;2023-04-24T11:57:20;3.65;;;2.42;;
53903;SDS011;39812;52.430;16.936;2023-04-24T11:59:47;3.88;;;2.83;;
53903;SDS011;39812;52.430;16.936;2023-04-24T12:02:19;5.03;;;2.45;;
53903;SDS011;39812;52.430;16.936;2023-04-24T12:04:49;3.60;;;2.50;;
53903;SDS011;39812;52.430;16.936;2023-04-24T12:07:15;3.08;;;2.67;;
53903;SDS011;39812;52.430;16.936;2023-04-24T12:09:45;2.80;;;2.35;;
53903;SDS011;39812;52.430;16.936;2023-04-24T12:12:13;4.18;;;2.50;;
53903;SDS011;39812;52.430;16.936;2023-04-24T12:14:49;3.55;;;2.40;;
53903;SDS011;39812;52.430;16.936;2023-04-24T12:17:23;3.13;;;2.13;;
53903;SDS011;39812;52.430;16.936;2023-04-24T12:19:50;3.72;;;2.05;;
53903;SDS011;39812;52.430;16.936;2023-04-24T12:22:16;3.92;;;2.55;;
53903;SDS011;39812;52.430;16.936;2023-04-24T12:24:57;4.32;;;2.50;;
53903;SDS011;39812;52.430;16.936;2023-04-24T12:27:24;2.97;;;2.40;;
53903;SDS011;39812;52.430;16.936;2023-04-24T12:29:51;5.30;;;2.78;;
53903;SDS011;39812;52.430;16.936;2023-04-24T12:32:18;4.22;;;2.70;;
53903;SDS011;39812;52.430;16.936;2023-04-24T12:34:44;3.75;;;2.30;;
53903;SDS011;39812;52.430;16.936;2023-04-24T12:37:10;3.83;;;2.78;;
53903;SDS011;39812;52.430;16.936;2023-04-24T12:39:37;3.60;;;2.47;;
53903;SDS011;39812;52.430;16.936;2023-04-24T12:42:02;3.97;;;2.40;;
53903;SDS011;39812;52.430;16.936;2023-04-24T12:44:28;2.55;;;2.13;;
53903;SDS011;39812;52.430;16.936;2023-04-24T12:46:56;3.03;;;2.40;;
53903;SDS011;39812;52.430;16.936;2023-04-24T12:49:21;3.03;;;2.47;;
53903;SDS011;39812;52.430;16.936;2023-04-24T12:51:47;5.95;;;2.38;;
53903;SDS011;39812;52.430;16.936;2023-04-24T12:54:12;4.05;;;2.47;;
53903;SDS011;39812;52.430;16.936;2023-04-24T12:56:38;3.30;;;2.13;;
53903;SDS011;39812;52.430;16.936;2023-04-24T12:59:04;5.63;;;2.75;;
53903;SDS011;39812;52.430;16.936;2023-04-24T13:01:30;3.72;;;2.50;;
53903;SDS011;39812;52.430;16.936;2023-04-24T13:03:56;4.20;;;2.90;;
53903;SDS011;39812;52.430;16.936;2023-04-24T13:06:21;7.47;;;3.33;;
53903;SDS011;39812;52.430;16.936;2023-04-24T13:08:47;6.95;;;3.35;;
53903;SDS011;39812;52.430;16.936;2023-04-24T13:11:13;4.82;;;3.28;;
53903;SDS011;39812;52.430;16.936;2023-04-24T13:13:39;5.22;;;3.33;;
53903;SDS011;39812;52.430;16.936;2023-04-24T13:16:05;3.95;;;2.60;;
53903;SDS011;39812;52.430;16.936;2023-04-24T13:18:30;4.78;;;2.90;;
53903;SDS011;39812;52.430;16.936;2023-04-24T13:20:56;4.35;;;3.20;;
53903;SDS011;39812;52.430;16.936;2023-04-24T13:23:22;4.55;;;3.20;;
53903;SDS011;39812;52.430;16.936;2023-04-24T13:25:48;7.53;;;3.30;;
53903;SDS011;39812;52.430;16.936;2023-04-24T13:28:14;4.30;;;2.90;;
53903;SDS011;39812;52.430;16.936;2023-04-24T13:30:39;3.20;;;2.65;;
53903;SDS011;39812;52.430;16.936;2023-04-24T13:33:05;4.70;;;2.50;;
53903;SDS011;39812;52.430;16.936;2023-04-24T13:35:31;4.53;;;2.70;;
53903;SDS011;39812;52.430;16.936;2023-04-24T13:37:57;3.45;;;2.78;;
53903;SDS011;39812;52.430;16.936;2023-04-24T13:40:23;3.65;;;2.25;;
53903;SDS011;39812;52.430;16.936;2023-04-24T13:42:48;3.22;;;2.45;;
53903;SDS011;39812;52.430;16.936;2023-04-24T13:45:14;4.50;;;2.30;;
53903;SDS011;39812;52.430;16.936;2023-04-24T13:47:40;2.80;;;2.17;;
53903;SDS011;39812;52.430;16.936;2023-04-24T13:50:07;3.78;;;1.75;;
53903;SDS011;39812;52.430;16.936;2023-04-24T13:52:33;3.58;;;1.80;;
53903;SDS011;39812;52.430;16.936;2023-04-24T13:54:59;2.70;;;1.40;;
53903;SDS011;39812;52.430;16.936;2023-04-24T13:57:25;2.75;;;1.52;;
53903;SDS011;39812;52.430;16.936;2023-04-24T13:59:50;2.58;;;1.20;;
53903;SDS011;39812;52.430;16.936;2023-04-24T14:02:16;5.32;;;1.38;;
53903;SDS011;39812;52.430;16.936;2023-04-24T14:04:42;4.57;;;1.45;;
53903;SDS011;39812;52.430;16.936;2023-04-24T14:07:07;2.92;;;1.40;;
53903;SDS011;39812;52.430;16.936;2023-04-24T14:09:33;2.10;;;1.20;;
53903;SDS011;39812;52.430;16.936;2023-04-24T14:11:59;3.53;;;1.20;;
53903;SDS011;39812;52.430;16.936;2023-04-24T14:14:26;2.97;;;1.33;;
53903;SDS011;39812;52.430;16.936;2023-04-24T14:16:52;3.78;;;1.20;;
53903;SDS011;39812;52.430;16.936;2023-04-24T14:19:17;3.75;;;1.00;;
53903;SDS011;39812;52.430;16.936;2023-04-24T14:21:43;2.65;;;1.13;;
53903;SDS011;39812;52.430;16.936;2023-04-24T14:24:09;3.40;;;1.15;;
53903;SDS011;39812;52.430;16.936;2023-04-24T14:26:34;1.77;;;0.90;;
53903;SDS011;39812;52.430;16.936;2023-04-24T14:29:00;2.33;;;0.90;;
53903;SDS011;39812;52.430;16.936;2023-04-24T14:31:26;2.00;;;0.98;;
53903;SDS011;39812;52.430;16.936;2023-04-24T14:33:52;2.08;;;0.90;;
53903;SDS011;39812;52.430;16.936;2023-04-24T14:36:17;2.83;;;1.08;;